createdAt,value
2019-02-12T00:01:23.384Z,4.17
2019-02-12T00:03:54.057Z,4.17
2019-02-12T00:06:24.709Z,4.14
2019-02-12T00:08:55.601Z,4.10
2019-02-12T00:11:26.491Z,4.08
2019-02-12T00:13:58.048Z,4.09
2019-02-12T00:16:28.578Z,4.01
2019-02-12T00:18:59.582Z,4.02
2019-02-12T00:21:30.835Z,4.02
2019-02-12T00:24:01.799Z,3.98
2019-02-12T00:26:32.916Z,3.86
2019-02-12T00:29:03.649Z,3.91
2019-02-12T00:31:34.627Z,3.91
2019-02-12T00:34:05.619Z,3.87
2019-02-12T00:36:36.521Z,3.77
2019-02-12T00:39:07.629Z,3.70
2019-02-12T00:41:38.371Z,3.67
2019-02-12T00:44:09.301Z,3.59
2019-02-12T00:46:39.740Z,3.51
2019-02-12T00:49:10.863Z,3.51
2019-02-12T00:51:41.829Z,3.52
2019-02-12T00:54:12.847Z,3.52
2019-02-12T00:56:43.190Z,3.46
2019-02-12T00:59:14.931Z,3.44
2019-02-12T01:01:46.320Z,3.38
2019-02-12T01:04:16.792Z,3.30
2019-02-12T01:06:48.275Z,3.30
2019-02-12T01:09:18.781Z,3.41
2019-02-12T01:11:49.777Z,3.36
2019-02-12T01:14:21.201Z,3.37
2019-02-12T01:16:52.314Z,3.37
2019-02-12T01:19:23.247Z,3.35
2019-02-12T01:21:54.217Z,3.31
2019-02-12T01:24:25.092Z,3.31
2019-02-12T01:26:56.060Z,3.42
2019-02-12T01:29:26.872Z,3.46
2019-02-12T01:31:57.944Z,3.44
2019-02-12T01:34:28.915Z,3.44
2019-02-12T01:36:59.817Z,3.40
2019-02-12T01:39:30.619Z,3.50
2019-02-12T01:42:01.642Z,3.48
2019-02-12T01:44:32.607Z,3.48
2019-02-12T01:47:02.959Z,3.39
2019-02-12T01:49:34.079Z,3.42
2019-02-12T01:52:05.101Z,3.44
2019-02-12T01:54:35.975Z,3.44
2019-02-12T01:57:07.101Z,3.40
2019-02-12T01:59:38.118Z,3.43
2019-02-12T02:02:09.119Z,3.46
2019-02-12T02:04:40.071Z,3.43
2019-02-12T02:07:11.237Z,3.43
2019-02-12T02:09:41.594Z,3.51
2019-02-12T02:12:12.085Z,3.47
2019-02-12T02:14:43.331Z,3.46
2019-02-12T02:17:15.144Z,3.42
2019-02-12T02:19:46.322Z,3.49
2019-02-12T02:22:17.253Z,3.49
2019-02-12T02:24:47.636Z,3.52
2019-02-12T02:27:19.233Z,3.55
2019-02-12T02:29:50.247Z,3.51
2019-02-12T02:32:21.191Z,3.50
2019-02-12T02:34:52.202Z,3.43
2019-02-12T02:37:23.197Z,3.50
2019-02-12T02:39:54.189Z,3.51
2019-02-12T02:42:25.533Z,3.56
2019-02-12T02:44:56.043Z,3.56
2019-02-12T02:47:27.058Z,3.65
2019-02-12T02:49:57.968Z,3.61
2019-02-12T02:52:28.448Z,3.60
2019-02-12T02:54:59.326Z,3.70
2019-02-12T02:57:30.295Z,3.70
2019-02-12T03:00:01.482Z,3.67
2019-02-12T03:02:32.763Z,3.67
2019-02-12T03:05:05.432Z,3.60
2019-02-12T03:07:37.298Z,3.57
2019-02-12T03:10:08.741Z,3.60
2019-02-12T03:12:39.410Z,3.45
2019-02-12T03:15:10.672Z,3.45
2019-02-12T03:17:41.384Z,3.53
2019-02-12T03:20:12.324Z,3.53
2019-02-12T03:22:43.524Z,3.48
2019-02-12T03:25:14.498Z,3.45
2019-02-12T03:27:46.440Z,3.41
2019-02-12T03:30:19.451Z,3.43
2019-02-12T03:32:50.411Z,3.39
2019-02-12T03:35:21.530Z,3.39
2019-02-12T03:37:52.461Z,3.39
2019-02-12T03:40:23.669Z,3.33
2019-02-12T03:42:54.458Z,3.33
2019-02-12T03:45:25.514Z,3.23
2019-02-12T03:47:56.530Z,3.21
2019-02-12T03:50:29.539Z,3.21
2019-02-12T03:53:01.587Z,3.17
2019-02-12T03:55:34.586Z,3.28
2019-02-12T03:58:05.510Z,3.31
2019-02-12T04:00:36.546Z,3.31
2019-02-12T04:03:08.460Z,3.35
2019-02-12T04:05:41.709Z,3.45
2019-02-12T04:08:12.562Z,3.56
2019-02-12T04:10:43.477Z,3.61
2019-02-12T04:13:14.747Z,3.68
2019-02-12T04:15:45.809Z,3.68
2019-02-12T04:18:16.718Z,3.68
2019-02-12T04:20:47.680Z,3.64
2019-02-12T04:23:18.704Z,3.64
2019-02-12T04:25:49.537Z,3.67
2019-02-12T04:28:22.456Z,3.71
2019-02-12T04:30:54.796Z,3.71
2019-02-12T04:33:25.736Z,3.63
2019-02-12T04:35:58.822Z,3.63
2019-02-12T04:38:29.864Z,3.69
2019-02-12T04:41:01.894Z,3.62
2019-02-12T04:43:34.867Z,3.68
2019-02-12T04:46:05.737Z,3.67
2019-02-12T04:48:36.797Z,3.67
2019-02-12T04:51:07.723Z,3.71
2019-02-12T04:53:38.898Z,3.71
2019-02-12T04:56:09.531Z,3.63
2019-02-12T04:58:40.837Z,3.63
2019-02-12T05:01:11.888Z,3.64
2019-02-12T05:03:43.772Z,3.64
2019-02-12T05:06:16.940Z,3.62
2019-02-12T05:09:24.971Z,3.66
2019-02-12T05:12:05.442Z,3.66
2019-02-12T05:14:37.890Z,3.68
2019-02-12T05:17:09.003Z,3.63
2019-02-12T05:19:39.890Z,3.60
2019-02-12T05:22:10.825Z,3.57
2019-02-12T05:24:41.794Z,3.63
2019-02-12T05:27:12.685Z,3.63
2019-02-12T05:29:43.672Z,3.52
2019-02-12T05:32:16.063Z,3.52
2019-02-12T05:34:47.012Z,3.48
2019-02-12T05:37:17.919Z,3.40
2019-02-12T05:39:49.616Z,3.45
2019-02-12T05:42:20.011Z,3.51
2019-02-12T05:44:50.934Z,3.44
2019-02-12T05:47:21.862Z,3.31
2019-02-12T05:49:52.627Z,3.33
2019-02-12T05:52:23.041Z,3.37
2019-02-12T05:54:54.585Z,3.32
2019-02-12T05:57:25.188Z,3.35
2019-02-12T05:59:56.184Z,3.28
2019-02-12T06:02:27.125Z,3.38
2019-02-12T06:04:58.374Z,3.38
2019-02-12T06:07:29.191Z,3.38
2019-02-12T06:10:00.272Z,3.36
2019-02-12T06:12:31.150Z,3.36
2019-02-12T06:15:02.234Z,3.47
2019-02-12T06:17:33.235Z,3.45
2019-02-12T06:20:04.215Z,3.52
2019-02-12T06:22:35.254Z,3.53
2019-02-12T06:25:07.930Z,3.53
2019-02-12T06:27:40.298Z,3.54
2019-02-12T06:30:13.323Z,3.50
2019-02-12T06:32:43.699Z,3.50
2019-02-12T06:35:15.427Z,3.62
2019-02-12T06:37:47.299Z,3.62
2019-02-12T06:40:20.312Z,3.61
2019-02-12T06:42:54.957Z,3.68
2019-02-12T06:45:25.380Z,3.65
2019-02-12T06:47:56.306Z,3.73
2019-02-12T06:50:29.314Z,3.86
2019-02-12T06:53:00.471Z,4.14
2019-02-12T06:55:31.820Z,4.33
2019-02-12T06:58:02.516Z,4.41
2019-02-12T07:00:33.793Z,4.36
2019-02-12T07:03:11.963Z,4.36
2019-02-12T07:06:30.494Z,4.40
2019-02-12T07:09:11.245Z,4.50
2019-02-12T07:12:31.735Z,4.50
2019-02-12T07:15:26.199Z,4.95
2019-02-12T07:18:11.729Z,4.95
2019-02-12T07:21:34.221Z,4.85
2019-02-12T07:24:25.897Z,4.75
2019-02-12T07:27:52.931Z,4.68
2019-02-12T07:31:13.229Z,4.73
2019-02-12T07:34:42.745Z,4.90
2019-02-12T07:38:03.460Z,4.90
2019-02-12T07:40:57.275Z,4.72
2019-02-12T07:43:51.923Z,4.72
2019-02-12T07:47:06.792Z,4.77
2019-02-12T07:50:07.491Z,4.53
2019-02-12T07:53:12.027Z,4.71
2019-02-12T07:56:26.096Z,4.67
2019-02-12T07:59:43.929Z,4.66
2019-02-12T08:02:50.454Z,4.66
2019-02-12T08:06:03.397Z,4.45
2019-02-12T08:09:36.960Z,4.34
2019-02-12T08:12:34.459Z,4.27
2019-02-12T08:15:37.900Z,4.30
2019-02-12T08:18:38.661Z,4.30
2019-02-12T08:21:55.244Z,4.39
2019-02-12T08:24:53.460Z,4.38
2019-02-12T08:28:05.478Z,4.38
2019-02-12T08:31:28.226Z,4.23
2019-02-12T08:34:48.913Z,3.94
2019-02-12T08:37:34.265Z,3.94
2019-02-12T08:40:17.414Z,4.09
2019-02-12T08:43:30.689Z,4.14
2019-02-12T08:46:16.618Z,4.14
2019-02-12T08:49:19.056Z,4.07
2019-02-12T08:52:06.919Z,4.25
2019-02-12T08:55:06.959Z,4.45
2019-02-12T08:58:16.394Z,4.45
2019-02-12T09:01:33.034Z,4.79
2019-02-12T09:04:29.929Z,4.97
2019-02-12T09:07:42.316Z,4.97
2019-02-12T09:11:11.748Z,5.11
2019-02-12T09:14:10.396Z,5.16
2019-02-12T09:17:24.564Z,5.05
2019-02-12T09:20:50.978Z,5.21
2019-02-12T09:24:07.981Z,5.21
2019-02-12T09:27:41.149Z,5.10
2019-02-12T09:30:57.313Z,5.08
2019-02-12T09:34:07.497Z,5.09
2019-02-12T09:37:10.040Z,5.32
2019-02-12T09:40:37.535Z,5.45
2019-02-12T09:44:03.801Z,5.41
2019-02-12T09:47:30.734Z,5.26
2019-02-12T09:50:25.348Z,5.44
2019-02-12T09:53:23.262Z,5.40
2019-02-12T09:56:27.875Z,5.37
2019-02-12T09:59:43.013Z,5.19
2019-02-12T10:02:43.224Z,5.19
2019-02-12T10:05:50.067Z,5.03
2019-02-12T10:08:55.920Z,5.24
2019-02-12T10:11:46.950Z,5.37
2019-02-12T10:15:04.452Z,5.33
2019-02-12T10:18:13.703Z,5.29
2019-02-12T10:20:58.748Z,5.18
2019-02-12T10:24:19.443Z,5.30
2019-02-12T10:26:48.585Z,5.56
2019-02-12T10:29:58.900Z,5.76
2019-02-12T10:32:28.696Z,5.10
2019-02-12T10:35:01.458Z,4.88
2019-02-12T10:37:32.363Z,5.23
2019-02-12T10:40:05.553Z,5.25
2019-02-12T10:42:37.472Z,5.25
2019-02-12T10:45:10.884Z,5.32
2019-02-12T10:47:41.445Z,5.30
2019-02-12T10:50:14.048Z,5.28
2019-02-12T10:52:44.424Z,5.37
2019-02-12T10:55:15.659Z,5.06
2019-02-12T10:57:47.455Z,4.98
2019-02-12T11:00:18.480Z,5.04
2019-02-12T11:02:50.459Z,4.91
2019-02-12T11:05:21.481Z,5.02
2019-02-12T11:07:52.423Z,4.98
2019-02-12T11:10:23.364Z,4.98
2019-02-12T11:12:53.964Z,5.17
2019-02-12T11:15:25.243Z,5.17
2019-02-12T11:17:56.166Z,5.31
2019-02-12T11:20:26.638Z,5.34
2019-02-12T11:22:58.058Z,5.19
2019-02-12T11:25:28.677Z,5.08
2019-02-12T11:27:59.523Z,5.14
2019-02-12T11:30:30.754Z,4.92
2019-02-12T11:33:01.594Z,5.01
2019-02-12T11:35:32.572Z,5.01
2019-02-12T11:38:03.621Z,4.99
2019-02-12T11:40:34.633Z,5.09
2019-02-12T11:43:05.826Z,4.74
2019-02-12T11:45:36.546Z,4.51
2019-02-12T11:48:07.507Z,4.12
2019-02-12T11:50:38.517Z,4.12
2019-02-12T11:53:09.383Z,4.19
2019-02-12T11:55:41.141Z,3.79
2019-02-12T11:58:11.539Z,3.64
2019-02-12T12:00:53.491Z,3.64
2019-02-12T12:03:24.831Z,3.56
2019-02-12T12:05:56.773Z,3.53
2019-02-12T12:08:29.722Z,3.53
2019-02-12T12:11:00.858Z,3.65
2019-02-12T12:13:31.791Z,3.57
2019-02-12T12:16:02.786Z,3.65
2019-02-12T12:18:33.873Z,3.64
2019-02-12T12:21:04.942Z,3.73
2019-02-12T12:23:35.795Z,3.73
2019-02-12T12:26:06.920Z,3.70
2019-02-12T12:28:38.231Z,3.77
2019-02-12T12:31:08.782Z,3.68
2019-02-12T12:33:39.919Z,3.76
2019-02-12T12:36:10.954Z,3.76
2019-02-12T12:38:41.816Z,3.94
2019-02-12T12:41:12.964Z,3.94
2019-02-12T12:43:44.078Z,4.10
2019-02-12T12:46:14.952Z,4.19
2019-02-12T12:48:45.774Z,4.19
2019-02-12T12:51:16.802Z,4.30
2019-02-12T12:53:47.718Z,4.43
2019-02-12T12:56:18.081Z,4.32
2019-02-12T12:58:49.599Z,4.29
2019-02-12T13:01:20.748Z,4.53
2019-02-12T13:03:51.821Z,4.48
2019-02-12T13:06:22.829Z,4.48
2019-02-12T13:08:55.857Z,4.72
2019-02-12T13:11:27.092Z,4.31
2019-02-12T13:13:58.064Z,3.85
2019-02-12T13:16:29.044Z,3.80
2019-02-12T13:19:00.147Z,3.71
2019-02-12T13:21:31.083Z,3.63
2019-02-12T13:24:02.233Z,3.43
2019-02-12T13:26:34.102Z,3.43
2019-02-12T13:29:07.109Z,3.07
2019-02-12T13:31:38.224Z,2.74
2019-02-12T13:34:09.161Z,2.53
2019-02-12T13:36:40.083Z,2.53
2019-02-12T13:39:11.286Z,2.63
2019-02-12T13:41:42.200Z,2.73
2019-02-12T13:44:13.106Z,2.83
2019-02-12T13:46:44.205Z,2.92
2019-02-12T13:49:15.176Z,3.01
2019-02-12T13:51:47.272Z,3.11
2019-02-12T13:54:20.394Z,3.09
2019-02-12T13:56:53.244Z,3.35
2019-02-12T13:59:25.691Z,3.35
2019-02-12T14:01:56.188Z,3.51
2019-02-12T14:04:31.515Z,3.51
2019-02-12T14:07:04.242Z,3.60
2019-02-12T14:09:35.370Z,3.60
2019-02-12T14:12:08.278Z,3.64
2019-02-12T14:14:40.310Z,3.67
2019-02-12T14:17:13.304Z,3.71
2019-02-12T14:19:44.286Z,3.71
2019-02-12T14:22:15.311Z,3.69
2019-02-12T14:24:47.355Z,3.67
2019-02-12T14:27:20.354Z,3.77
2019-02-12T14:29:53.819Z,3.72
2019-02-12T14:32:25.333Z,3.60
2019-02-12T14:34:56.534Z,3.60
2019-02-12T14:37:27.412Z,3.68
2019-02-12T14:39:58.350Z,3.57
2019-02-12T14:42:31.456Z,3.57
2019-02-12T14:45:02.385Z,3.64
2019-02-12T14:47:33.453Z,3.56
2019-02-12T14:50:04.810Z,3.56
2019-02-12T14:52:35.501Z,3.64
2019-02-12T14:55:06.606Z,3.64
2019-02-12T14:57:37.583Z,3.70
2019-02-12T15:00:10.947Z,3.78
2019-02-12T15:02:42.540Z,3.78
2019-02-12T15:05:14.605Z,3.93
2019-02-12T15:07:45.043Z,3.93
2019-02-12T15:10:15.734Z,3.90
2019-02-12T15:12:47.599Z,3.88
2019-02-12T15:15:20.591Z,3.91
2019-02-12T15:17:53.679Z,3.91
2019-02-12T15:20:25.694Z,3.87
2019-02-12T15:22:56.601Z,3.93
2019-02-12T15:25:29.873Z,3.93
2019-02-12T15:28:00.754Z,3.86
2019-02-12T15:30:31.649Z,3.86
2019-02-12T15:33:02.627Z,4.00
2019-02-12T15:35:33.765Z,3.93
2019-02-12T15:38:04.583Z,3.93
2019-02-12T15:40:35.753Z,3.79
2019-02-12T15:43:06.752Z,3.78
2019-02-12T15:45:37.696Z,3.70
2019-02-12T15:48:08.818Z,3.67
2019-02-12T15:50:39.755Z,3.45
2019-02-12T15:53:11.078Z,3.45
2019-02-12T15:55:42.415Z,3.40
2019-02-12T15:58:15.734Z,3.40
2019-02-12T16:00:47.918Z,3.37
2019-02-12T16:03:20.542Z,3.29
2019-02-12T16:05:51.799Z,3.24
2019-02-12T16:08:24.779Z,3.17
2019-02-12T16:10:57.052Z,3.17
2019-02-12T16:13:29.913Z,3.07
2019-02-12T16:16:00.800Z,3.04
2019-02-12T16:18:31.163Z,3.01
2019-02-12T16:21:02.975Z,3.01
2019-02-12T16:23:34.000Z,3.03
2019-02-12T16:26:05.984Z,2.98
2019-02-12T16:28:37.986Z,2.97
2019-02-12T16:31:08.877Z,2.88
2019-02-12T16:33:39.993Z,2.88
2019-02-12T16:36:11.051Z,2.87
2019-02-12T16:38:41.863Z,2.83
2019-02-12T16:41:13.177Z,2.78
2019-02-12T16:43:44.037Z,2.75
2019-02-12T16:46:20.256Z,2.81
2019-02-12T16:48:52.149Z,2.82
2019-02-12T16:51:25.213Z,2.80
2019-02-12T16:53:56.973Z,2.71
2019-02-12T16:56:29.141Z,2.69
2019-02-12T16:59:03.558Z,2.74
2019-02-12T17:01:35.106Z,2.74
2019-02-12T17:04:06.140Z,2.65
2019-02-12T17:06:37.305Z,2.63
2019-02-12T17:09:08.121Z,2.82
2019-02-12T17:11:39.120Z,2.71
2019-02-12T17:14:10.237Z,2.66
2019-02-12T17:16:41.139Z,2.61
2019-02-12T17:19:12.075Z,2.70
2019-02-12T17:21:43.127Z,2.64
2019-02-12T17:24:14.282Z,2.58
2019-02-12T17:26:44.841Z,2.61
2019-02-12T17:29:16.268Z,2.56
2019-02-12T17:31:47.363Z,2.59
2019-02-12T17:34:18.128Z,2.59
2019-02-12T17:36:50.232Z,2.61
2019-02-12T17:39:24.177Z,2.59
2019-02-12T17:41:57.213Z,2.60
2019-02-12T17:44:28.322Z,2.62
2019-02-12T17:47:01.330Z,2.58
2019-02-12T17:49:32.349Z,2.63
2019-02-12T17:52:03.289Z,2.67
2019-02-12T17:54:34.224Z,2.55
2019-02-12T17:57:05.382Z,2.59
2019-02-12T17:59:36.334Z,2.64
2019-02-12T18:02:08.411Z,2.56
2019-02-12T18:04:41.384Z,2.60
2019-02-12T18:07:12.313Z,2.55
2019-02-12T18:09:43.648Z,2.57
2019-02-12T18:12:14.473Z,2.50
2019-02-12T18:14:45.017Z,2.62
2019-02-12T18:17:17.448Z,2.66
2019-02-12T18:19:48.478Z,2.57
2019-02-12T18:22:21.939Z,2.62
2019-02-12T18:24:53.947Z,2.68
2019-02-12T18:27:26.447Z,2.66
2019-02-12T18:29:57.622Z,2.67
2019-02-12T18:32:28.388Z,2.68
2019-02-12T18:35:01.512Z,2.71
2019-02-12T18:37:32.411Z,2.70
2019-02-12T18:40:03.642Z,2.67
2019-02-12T18:42:34.545Z,2.76
2019-02-12T18:45:06.058Z,2.74
2019-02-12T18:47:37.649Z,2.60
2019-02-12T18:50:09.507Z,2.69
2019-02-12T18:52:40.188Z,2.81
2019-02-12T18:55:11.740Z,2.77
2019-02-12T18:57:44.553Z,2.78
2019-02-12T19:00:18.735Z,2.82
2019-02-12T19:02:51.674Z,2.79
2019-02-12T19:05:23.318Z,2.86
2019-02-12T19:07:53.724Z,2.85
2019-02-12T19:10:24.099Z,2.94
2019-02-12T19:12:54.627Z,2.94
2019-02-12T19:15:27.254Z,2.90
2019-02-12T19:18:01.910Z,2.95
2019-02-12T19:20:34.754Z,3.09
2019-02-12T19:23:05.805Z,3.13
2019-02-12T19:25:38.387Z,3.05
2019-02-12T19:28:10.709Z,3.15
2019-02-12T19:30:42.060Z,3.23
2019-02-12T19:33:12.871Z,3.22
2019-02-12T19:35:44.650Z,3.16
2019-02-12T19:38:17.781Z,3.25
2019-02-12T19:40:49.817Z,3.14
2019-02-12T19:43:22.742Z,3.15
2019-02-12T19:45:53.740Z,3.19
2019-02-12T19:48:24.821Z,3.22
2019-02-12T19:50:55.256Z,3.17
2019-02-12T19:53:26.851Z,3.19
2019-02-12T19:55:58.029Z,3.19
2019-02-12T19:58:28.814Z,3.17
2019-02-12T20:00:59.925Z,3.19
2019-02-12T20:03:30.874Z,3.08
2019-02-12T20:06:01.723Z,3.11
2019-02-12T20:08:32.904Z,3.05
2019-02-12T20:11:03.746Z,3.05
2019-02-12T20:13:34.727Z,2.95
2019-02-12T20:16:05.915Z,2.94
2019-02-12T20:18:37.016Z,2.93
2019-02-12T20:21:08.073Z,2.88
2019-02-12T20:23:38.871Z,2.89
2019-02-12T20:26:09.989Z,2.84
2019-02-12T20:28:40.875Z,2.91
2019-02-12T20:31:11.953Z,2.89
2019-02-12T20:33:42.827Z,2.86
2019-02-12T20:36:14.017Z,2.84
2019-02-12T20:38:44.675Z,2.86
2019-02-12T20:41:15.882Z,2.88
2019-02-12T20:43:46.804Z,2.90
2019-02-12T20:46:17.822Z,2.92
2019-02-12T20:48:48.577Z,2.95
2019-02-12T20:51:19.140Z,3.02
2019-02-12T20:53:50.313Z,3.01
2019-02-12T20:56:21.237Z,2.97
2019-02-12T20:58:52.305Z,2.91
2019-02-12T21:01:23.227Z,2.82
2019-02-12T21:03:54.262Z,2.90
2019-02-12T21:06:25.101Z,2.85
2019-02-12T21:08:56.098Z,2.86
2019-02-12T21:11:27.232Z,2.80
2019-02-12T21:13:57.964Z,2.96
2019-02-12T21:16:29.004Z,2.91
2019-02-12T21:18:59.691Z,2.90
2019-02-12T21:21:31.862Z,2.93
2019-02-12T21:24:04.232Z,2.88
2019-02-12T21:26:35.304Z,2.85
2019-02-12T21:29:06.203Z,2.95
2019-02-12T21:31:38.075Z,2.86
2019-02-12T21:34:11.337Z,2.77
2019-02-12T21:36:45.037Z,2.84
2019-02-12T21:39:19.520Z,2.88
2019-02-12T21:41:51.401Z,2.87
2019-02-12T21:44:24.277Z,2.83
2019-02-12T21:46:55.408Z,2.89
2019-02-12T21:49:26.353Z,2.84
2019-02-12T21:51:58.950Z,2.77
2019-02-12T21:54:31.540Z,2.79
2019-02-12T21:57:02.379Z,2.79
2019-02-12T21:59:33.452Z,2.80
2019-02-12T22:02:04.359Z,2.81
2019-02-12T22:04:37.535Z,2.82
2019-02-12T22:07:09.571Z,2.75
2019-02-12T22:09:42.509Z,2.86
2019-02-12T22:12:13.468Z,2.78
2019-02-12T22:14:44.414Z,2.74
2019-02-12T22:17:15.557Z,2.65
2019-02-12T22:19:45.957Z,2.64
2019-02-12T22:22:17.428Z,2.55
2019-02-12T22:24:48.588Z,2.71
2019-02-12T22:27:19.642Z,2.67
2019-02-12T22:29:51.577Z,2.67
2019-02-12T22:32:21.954Z,2.72
2019-02-12T22:34:54.621Z,2.83
2019-02-12T22:37:26.649Z,2.75
2019-02-12T22:39:57.545Z,2.73
2019-02-12T22:42:28.513Z,2.80
2019-02-12T22:45:00.565Z,2.71
2019-02-12T22:47:33.496Z,2.76
2019-02-12T22:50:04.453Z,2.80
2019-02-12T22:52:35.337Z,2.78
2019-02-12T22:55:06.382Z,2.78
2019-02-12T22:57:36.759Z,2.83
2019-02-12T23:00:15.054Z,2.82
2019-02-12T23:02:45.428Z,2.88
2019-02-12T23:05:15.773Z,2.89
2019-02-12T23:07:48.818Z,2.82
2019-02-12T23:10:20.805Z,2.81
2019-02-12T23:12:51.662Z,2.79
2019-02-12T23:15:22.691Z,2.84
2019-02-12T23:17:54.680Z,2.82
2019-02-12T23:20:27.632Z,2.80
2019-02-12T23:22:58.791Z,2.70
2019-02-12T23:25:31.800Z,2.72
2019-02-12T23:28:03.174Z,2.66
2019-02-12T23:30:33.749Z,2.64
2019-02-12T23:33:04.747Z,2.66
2019-02-12T23:35:35.756Z,2.79
2019-02-12T23:38:06.837Z,2.78
2019-02-12T23:40:37.415Z,2.84
2019-02-12T23:43:07.762Z,2.78
2019-02-12T23:45:39.282Z,2.83
2019-02-12T23:48:09.869Z,2.91
2019-02-12T23:50:41.172Z,2.89
2019-02-12T23:53:11.815Z,2.87
2019-02-12T23:55:42.939Z,2.72
2019-02-12T23:58:14.071Z,2.73
